»·PEaware :: WAT169 KSNA-KCOS

WAT169 :: KSNA-KCOS

FLIGHT INFORMATION

Flight Status: Arrived
Operator:
Walker Air Transport
More flights by this operator :: More flights under this callsign
Pilot: Marty P. (27464)
Aircraft: BOEING 737-800
(B738)
More flights by this aircraft type
Origin: KSNA John Wayne-Orange Co
United States
Destination: KCOS City Of Colorado Springs Mun
United States
More flights between these airports :: More routes between these airports
Route: PIGGN2 AVRRY EED J8 CADDU RSK J44 ALS DBRY3
File this flight plan on PilotEdge
Remarks:
Altitude:
(Current/Filed)
39,000ft
Speed:
(Current/Filed)
480kts
Departed: 12-Jan-21 08:17 PM
Arrived: 12-Jan-21 10:09 PM
Distance/Time
Traveled:
707nm/1:51
Distance/Time
To Go:
Arrived

Flight Plot

Page will automatically refresh every two minutes.

Flight plan parsing failed; only flown route is shown


Map Options




Map Legend


Flown Route
Filed Route
Departure Airport
Arrival Airport
Navaid (VOR, NDB)
Fix

Horizontal Profiles

Position Reports

Time Latitude Longitude Heading Altitude Ground
Speed
12-Jan-21 20:04 33.675005 -117.865072 118 66ft 0kts
12-Jan-21 20:05 33.675005 -117.865072 118 66ft 0kts
12-Jan-21 20:06 33.675005 -117.865072 118 66ft 0kts
12-Jan-21 20:07 33.675005 -117.865073 118 66ft 0kts
12-Jan-21 20:08 33.675005 -117.865073 118 66ft 0kts
12-Jan-21 20:09 33.675109 -117.865307 118 66ft 0kts
12-Jan-21 20:10 33.675004 -117.865911 33 66ft 1kts
12-Jan-21 20:11 33.674921 -117.865965 27 66ft 0kts
12-Jan-21 20:12 33.674921 -117.865965 27 66ft 0kts
12-Jan-21 20:13 33.675437 -117.865628 28 66ft 12kts
12-Jan-21 20:14 33.679986 -117.862753 20 66ft 7kts
12-Jan-21 20:15 33.681419 -117.864873 281 66ft 7kts
12-Jan-21 20:16 33.669865 -117.872504 207 69ft 159kts
12-Jan-21 20:17 33.622367 -117.892910 186 2215ft 220kts
12-Jan-21 20:18 33.556960 -117.889589 157 5228ft 249kts
12-Jan-21 20:19 33.501098 -117.838985 122 8215ft 265kts
12-Jan-21 20:20 33.477343 -117.754573 88 10565ft 294kts
12-Jan-21 20:21 33.504020 -117.649621 58 11832ft 357kts
12-Jan-21 20:22 33.554268 -117.544586 57 14752ft 371kts
12-Jan-21 20:23 33.580458 -117.423869 86 17588ft 394kts
12-Jan-21 20:24 33.579558 -117.289871 84 20039ft 409kts
12-Jan-21 20:25 33.596342 -117.153598 72 22137ft 417kts
12-Jan-21 20:26 33.620287 -117.016424 81 24096ft 431kts
12-Jan-21 20:27 33.623626 -116.870689 86 25918ft 443kts
12-Jan-21 20:28 33.621459 -116.721459 87 27577ft 452kts
12-Jan-21 20:29 33.617924 -116.570753 87 29047ft 460kts
12-Jan-21 20:30 33.613818 -116.415802 86 30377ft 468kts
12-Jan-21 20:31 33.609371 -116.258650 86 31690ft 472kts
12-Jan-21 20:32 33.605387 -116.103434 81 33274ft 462kts
12-Jan-21 20:33 33.630078 -115.958689 62 34707ft 435kts
12-Jan-21 20:34 33.672873 -115.822958 61 35768ft 434kts
12-Jan-21 20:35 33.715621 -115.687678 61 36742ft 432kts
12-Jan-21 20:36 33.769066 -115.561446 45 37529ft 416kts
12-Jan-21 20:37 33.850322 -115.465880 35 38158ft 409kts
12-Jan-21 20:38 33.935554 -115.375164 35 38740ft 410kts
12-Jan-21 20:39 34.020869 -115.283917 35 39198ft 411kts
12-Jan-21 20:40 34.107088 -115.191428 36 39327ft 419kts
12-Jan-21 20:41 34.195170 -115.096703 36 39332ft 430kts
12-Jan-21 20:42 34.285096 -114.999693 36 39338ft 438kts
12-Jan-21 20:43 34.376510 -114.900836 36 39337ft 443kts
12-Jan-21 20:44 34.467829 -114.801780 36 39338ft 447kts
12-Jan-21 20:45 34.560624 -114.700731 36 39338ft 449kts
12-Jan-21 20:47 34.653327 -114.599544 36 39337ft 451kts
12-Jan-21 20:48 34.738829 -114.487146 54 39336ft 465kts
12-Jan-21 20:49 34.781324 -114.336199 70 39332ft 481kts
12-Jan-21 20:50 34.808760 -114.175991 73 39332ft 484kts
12-Jan-21 20:51 34.833069 -114.016189 73 39349ft 485kts
12-Jan-21 20:52 34.856733 -113.854479 73 39363ft 484kts
12-Jan-21 20:53 34.879846 -113.693820 73 39365ft 483kts
12-Jan-21 20:54 34.902783 -113.532452 73 39366ft 482kts
12-Jan-21 20:55 34.925326 -113.372310 73 39365ft 481kts
12-Jan-21 20:56 34.947712 -113.211599 74 39362ft 480kts
12-Jan-21 20:57 34.969938 -113.051497 72 39350ft 477kts
12-Jan-21 20:58 35.009462 -112.900199 60 39347ft 463kts
12-Jan-21 20:59 35.063548 -112.758520 58 39352ft 460kts
12-Jan-21 21:00 35.117815 -112.618682 58 39372ft 458kts
12-Jan-21 21:01 35.172229 -112.478263 58 39394ft 458kts
12-Jan-21 21:02 35.226618 -112.337381 59 39402ft 458kts
12-Jan-21 21:03 35.280829 -112.196307 59 39403ft 458kts
12-Jan-21 21:03 35.325809 -112.078836 59 39403ft 458kts
12-Jan-21 21:05 35.388539 -111.914315 59 39392ft 457kts
12-Jan-21 21:06 35.442185 -111.772938 59 39390ft 456kts
12-Jan-21 21:07 35.495318 -111.632295 59 39387ft 455kts
12-Jan-21 21:07 35.539511 -111.514838 59 39384ft 455kts
12-Jan-21 21:08 35.592514 -111.373431 59 39383ft 455kts
12-Jan-21 21:10 35.653271 -111.210395 59 39398ft 456kts
12-Jan-21 21:10 35.697109 -111.092294 59 39410ft 456kts
12-Jan-21 21:11 35.749535 -110.950593 59 39431ft 456kts
12-Jan-21 21:12 35.801606 -110.809186 59 39439ft 456kts
12-Jan-21 21:13 35.853810 -110.666757 59 39437ft 457kts
12-Jan-21 21:14 35.906004 -110.523734 59 39435ft 458kts
12-Jan-21 21:15 35.957979 -110.380695 59 39431ft 458kts
12-Jan-21 21:16 36.009287 -110.238605 59 39430ft 459kts
12-Jan-21 21:17 36.061053 -110.094754 59 39430ft 459kts
12-Jan-21 21:18 36.112777 -109.950398 60 39431ft 460kts
12-Jan-21 21:19 36.164435 -109.805479 60 39430ft 461kts
12-Jan-21 21:20 36.216069 -109.659964 59 39428ft 462kts
12-Jan-21 21:21 36.267634 -109.513960 59 39430ft 462kts
12-Jan-21 21:22 36.318816 -109.368380 59 39430ft 461kts
12-Jan-21 21:23 36.369720 -109.222756 60 39430ft 461kts
12-Jan-21 21:24 36.420502 -109.076846 60 39422ft 461kts
12-Jan-21 21:25 36.471135 -108.930716 60 39411ft 461kts
12-Jan-21 21:26 36.521521 -108.784631 60 39411ft 460kts
12-Jan-21 21:27 36.571982 -108.637550 60 39402ft 460kts
12-Jan-21 21:28 36.621895 -108.491416 60 39402ft 459kts
12-Jan-21 21:29 36.671534 -108.345361 60 39402ft 459kts
12-Jan-21 21:30 36.720624 -108.200057 60 39402ft 459kts
12-Jan-21 21:31 36.765916 -108.050755 66 39402ft 464kts
12-Jan-21 21:32 36.804803 -107.897637 65 39396ft 463kts
12-Jan-21 21:33 36.845335 -107.746076 64 39384ft 463kts
12-Jan-21 21:34 36.886491 -107.593803 64 39385ft 463kts
12-Jan-21 21:35 36.927615 -107.441442 64 39385ft 464kts
12-Jan-21 21:36 36.968423 -107.289352 65 39384ft 463kts
12-Jan-21 21:37 37.009175 -107.136643 65 39384ft 463kts
12-Jan-21 21:38 37.049583 -106.984445 65 39383ft 463kts
12-Jan-21 21:39 37.090238 -106.830438 65 39384ft 464kts
12-Jan-21 21:40 37.129821 -106.679270 65 39383ft 442kts
12-Jan-21 21:41 37.167730 -106.533796 65 39386ft 443kts
12-Jan-21 21:42 37.205945 -106.386552 65 39371ft 444kts
12-Jan-21 21:43 37.243840 -106.239441 65 39366ft 444kts
12-Jan-21 21:44 37.281452 -106.092638 65 39365ft 444kts
12-Jan-21 21:45 37.319266 -105.944244 65 39365ft 443kts
12-Jan-21 21:46 37.360426 -105.803394 50 39372ft 416kts
12-Jan-21 21:47 37.434641 -105.692046 43 38582ft 428kts
12-Jan-21 21:48 37.512497 -105.580338 43 35780ft 421kts
12-Jan-21 21:49 37.588587 -105.470488 43 32986ft 420kts
12-Jan-21 21:50 37.666192 -105.358051 44 30189ft 434kts
12-Jan-21 21:51 37.746372 -105.241373 45 27389ft 451kts
12-Jan-21 21:52 37.829511 -105.119985 46 24570ft 457kts
12-Jan-21 21:53 37.909668 -105.002385 46 21581ft 433kts
12-Jan-21 21:54 37.982299 -104.895142 46 18565ft 377kts
12-Jan-21 21:55 38.046744 -104.798401 46 15569ft 348kts
12-Jan-21 21:56 38.108098 -104.707381 46 12998ft 336kts
12-Jan-21 21:57 38.173189 -104.650071 2 13011ft 247kts
12-Jan-21 21:58 38.239856 -104.649097 358 12905ft 244kts
12-Jan-21 21:59 38.311205 -104.648014 353 11902ft 260kts
12-Jan-21 22:00 38.382450 -104.658373 351 10894ft 258kts
12-Jan-21 22:01 38.451946 -104.668754 352 9926ft 239kts
12-Jan-21 22:02 38.515978 -104.678403 351 8989ft 219kts
12-Jan-21 22:03 38.572185 -104.686029 357 9018ft 202kts
12-Jan-21 22:04 38.628278 -104.686074 357 9037ft 201kts
12-Jan-21 22:05 38.684800 -104.686098 359 7945ft 194kts
12-Jan-21 22:06 38.732014 -104.685901 359 7085ft 162kts
12-Jan-21 22:07 38.776384 -104.685817 1 6222ft 159kts
12-Jan-21 22:08 38.800125 -104.685916 351 6146ft 40kts
12-Jan-21 22:09 38.802596 -104.687141 325 6163ft 1kts
12-Jan-21 22:10 38.802792 -104.692967 271 6152ft 20kts
12-Jan-21 22:11 38.801992 -104.697249 178 6133ft 10kts
12-Jan-21 22:12 38.800759 -104.700623 269 6120ft 19kts
12-Jan-21 22:13 38.798690 -104.702528 175 6115ft 8kts
12-Jan-21 22:14 38.798392 -104.701606 101 6119ft 0kts
12-Jan-21 22:15 38.798392 -104.701608 101 6119ft 0kts
12-Jan-21 22:16 38.798392 -104.701608 101 6119ft 0kts
12-Jan-21 22:17 38.798392 -104.701608 101 6119ft 0kts
12-Jan-21 22:18 38.798392 -104.701608 101 6119ft 0kts
12-Jan-21 22:19 38.798392 -104.701608 101 6119ft 0kts
12-Jan-21 22:20 38.798392 -104.701608 101 6119ft 0kts

Navigation Log

Ident Type
Flight plan parsing failed, navigation log unavailable